Time;durP1;ratioP1;P1;durP2;ratioP2;P2;SDS_P1;SDS_P2;PMS_P1;PMS_P2;Temp;Humidity;BMP_temperature;BMP_pressure;BME280_temperature;BME280_humidity;BME280_pressure;Samples;Min_cycle;Max_cycle;Signal;HPM_P1;HPM_P2
2023/07/02 00:02:15;;;;;;;0.90;0.90;;;;;;;24.90;45.40;96798.84;5013962;28;20692;-28
2023/07/02 00:04:45;;;;;;;0.90;0.90;;;;;;;24.93;45.76;96808.28;5016457;28;20202;-28
2023/07/02 00:07:12;;;;;;;0.90;0.90;;;;;;;24.92;45.77;96806.56;5018984;28;20252;-28
2023/07/02 00:09:38;;;;;;;0.90;0.90;;;;;;;24.92;45.76;96810.00;5013263;28;20198;-30
2023/07/02 00:12:05;;;;;;;1.00;1.00;;;;;;;24.93;45.39;96800.59;5008487;28;20236;-28
2023/07/02 00:14:32;;;;;;;1.00;1.00;;;;;;;24.92;45.93;96797.16;5019694;28;20621;-28
2023/07/02 00:16:58;;;;;;;0.93;0.93;;;;;;;24.92;45.86;96799.72;5018472;28;20471;-29
2023/07/02 00:19:25;;;;;;;0.90;0.90;;;;;;;24.92;45.35;96806.56;5019618;28;20224;-28
2023/07/02 00:21:53;;;;;;;2.30;1.00;;;;;;;24.89;45.61;96797.13;5020972;28;20202;-28
2023/07/02 00:24:20;;;;;;;0.90;0.90;;;;;;;24.91;45.30;96810.88;5022136;28;20289;-28
2023/07/02 00:26:46;;;;;;;1.10;1.10;;;;;;;24.91;45.59;96810.00;5010735;28;20206;-28
2023/07/02 00:29:13;;;;;;;1.00;1.00;;;;;;;24.90;45.51;96811.69;5021269;28;20459;-29
2023/07/02 00:31:40;;;;;;;1.00;1.00;;;;;;;24.91;45.67;96810.00;5013045;28;20209;-28
2023/07/02 00:34:06;;;;;;;1.10;1.10;;;;;;;24.90;45.95;96810.84;5015958;28;20202;-29
2023/07/02 00:36:33;;;;;;;1.00;1.00;;;;;;;24.90;45.76;96809.13;5011560;28;20229;-28
2023/07/02 00:38:59;;;;;;;1.10;1.10;;;;;;;24.89;45.48;96809.13;5010634;28;20222;-28
2023/07/02 00:41:26;;;;;;;0.83;0.83;;;;;;;24.89;45.67;96807.41;5012908;28;20206;-29
2023/07/02 00:43:54;;;;;;;0.93;0.93;;;;;;;24.90;45.75;96805.72;5009651;28;20272;-28
2023/07/02 00:46:22;;;;;;;1.00;1.00;;;;;;;24.87;45.69;96805.69;5021196;28;20207;-28
2023/07/02 00:48:50;;;;;;;0.90;0.90;;;;;;;24.89;45.64;96809.13;5008997;28;20202;-36
2023/07/02 00:51:21;;;;;;;1.00;1.00;;;;;;;24.88;45.66;96813.41;5010537;28;20639;-28
2023/07/02 00:53:48;;;;;;;1.00;1.00;;;;;;;24.87;46.20;96811.69;5024627;28;20225;-28
2023/07/02 00:56:15;;;;;;;1.00;1.00;;;;;;;24.89;46.01;96814.25;5002124;28;20206;-28
2023/07/02 00:58:48;;;;;;;0.97;0.97;;;;;;;24.88;46.26;96815.13;5016097;28;20230;-28
2023/07/02 01:01:16;;;;;;;1.00;1.00;;;;;;;24.88;45.74;96818.56;4971170;28;20349;-28
2023/07/02 01:04:02;;;;;;;1.00;1.00;;;;;;;24.89;45.81;96820.28;5012781;28;20603;-28
2023/07/02 01:06:33;;;;;;;0.83;0.83;;;;;;;24.89;46.21;96811.69;5015135;28;20271;-28
2023/07/02 01:09:04;;;;;;;1.00;1.00;;;;;;;24.89;45.84;96814.25;5021668;28;20685;-29
2023/07/02 01:11:45;;;;;;;0.90;0.90;;;;;;;24.88;46.28;96815.13;5009904;28;20201;-28
2023/07/02 01:14:33;;;;;;;0.90;0.90;;;;;;;24.88;45.90;96813.41;5000451;28;20232;-28
2023/07/02 01:17:01;;;;;;;0.93;0.93;;;;;;;24.87;45.77;96814.25;5022690;28;20299;-28
2023/07/02 01:19:52;;;;;;;0.93;0.93;;;;;;;24.86;46.06;96814.25;5006127;28;20268;-33
2023/07/02 01:22:22;;;;;;;1.00;1.00;;;;;;;24.87;45.70;96821.13;5000840;28;20239;-28
2023/07/02 01:24:49;;;;;;;0.90;0.90;;;;;;;24.85;45.74;96821.13;5016005;28;20229;-28
2023/07/02 01:27:16;;;;;;;0.90;0.90;;;;;;;24.86;46.05;96819.38;5013386;28;20233;-28
2023/07/02 01:29:44;;;;;;;1.10;1.00;;;;;;;24.81;46.19;96809.06;5009103;28;20289;-28
2023/07/02 01:32:11;;;;;;;0.90;0.90;;;;;;;24.87;45.85;96818.56;5020600;28;20248;-28
2023/07/02 01:34:37;;;;;;;1.00;1.00;;;;;;;24.87;46.02;96824.53;5011332;28;20585;-28
2023/07/02 01:37:04;;;;;;;0.90;0.90;;;;;;;24.84;45.93;96818.53;4996183;28;20260;-28
2023/07/02 01:39:31;;;;;;;1.00;1.00;;;;;;;24.85;46.43;96823.69;5006177;28;20228;-28
2023/07/02 01:42:09;;;;;;;0.77;0.77;;;;;;;24.85;46.42;96828.81;5009037;28;20272;-29
2023/07/02 01:44:36;;;;;;;1.00;1.00;;;;;;;24.84;46.12;96832.22;4995194;28;20264;-28
2023/07/02 01:47:03;;;;;;;0.90;0.90;;;;;;;24.85;46.54;96839.09;5008223;28;20218;-28
2023/07/02 01:49:29;;;;;;;0.80;0.80;;;;;;;24.86;46.38;96845.09;5014175;28;20578;-28
2023/07/02 01:51:56;;;;;;;0.83;0.83;;;;;;;24.85;46.42;96851.97;5015911;28;20222;-28
2023/07/02 01:54:26;;;;;;;0.87;0.87;;;;;;;24.86;46.51;96850.22;5039896;22;20225;-27
2023/07/02 01:56:54;;;;;;;0.90;0.90;;;;;;;24.84;46.24;96841.66;5030636;28;20297;-27
2023/07/02 01:59:20;;;;;;;0.97;0.97;;;;;;;24.85;46.22;96833.97;5026576;28;20213;-27
2023/07/02 02:01:47;;;;;;;0.90;0.90;;;;;;;24.85;46.26;96828.81;5030701;28;20621;-27
2023/07/02 02:04:14;;;;;;;1.00;1.00;;;;;;;24.86;46.35;96833.09;5018861;28;20218;-27
2023/07/02 02:06:40;;;;;;;1.00;1.00;;;;;;;24.87;46.04;96831.41;5010701;28;20206;-27
2023/07/02 02:09:07;;;;;;;1.00;1.00;;;;;;;24.85;46.17;96833.97;5011675;28;20249;-26
2023/07/02 02:11:36;;;;;;;0.90;0.90;;;;;;;24.85;46.38;96844.25;5011127;28;20229;-27
2023/07/02 02:14:03;;;;;;;1.03;1.03;;;;;;;24.86;46.12;96850.22;5023214;28;20284;-26
2023/07/02 02:16:29;;;;;;;1.00;1.00;;;;;;;24.85;46.08;96851.97;5004561;28;20206;-27
2023/07/02 02:18:56;;;;;;;0.90;0.90;;;;;;;24.85;46.58;96849.38;5018271;28;20218;-27
2023/07/02 02:21:23;;;;;;;1.00;1.00;;;;;;;24.85;46.41;96849.38;5000060;28;20203;-27
2023/07/02 02:23:49;;;;;;;1.00;0.90;;;;;;;24.85;46.47;96851.09;5007735;28;20221;-27
2023/07/02 02:26:16;;;;;;;0.90;0.90;;;;;;;24.85;45.98;96849.38;5017831;28;20727;-27
2023/07/02 02:28:42;;;;;;;1.00;1.00;;;;;;;24.86;46.13;96848.53;5013581;28;20233;-26
2023/07/02 02:31:09;;;;;;;0.83;0.83;;;;;;;24.83;46.29;96847.63;5011985;28;20206;-27
2023/07/02 02:33:36;;;;;;;0.87;0.87;;;;;;;24.85;46.46;96839.09;5017378;28;20647;-27
2023/07/02 02:36:02;;;;;;;0.90;0.90;;;;;;;24.86;46.71;96837.38;5022324;28;20208;-26
2023/07/02 02:38:29;;;;;;;0.87;0.87;;;;;;;24.86;46.13;96842.50;5020936;28;20256;-27
2023/07/02 02:40:55;;;;;;;0.90;0.90;;;;;;;24.86;46.34;96845.94;4990159;28;20198;-27
2023/07/02 02:43:22;;;;;;;1.53;1.00;;;;;;;24.87;46.45;96841.69;5010775;28;20693;-27
2023/07/02 02:45:49;;;;;;;0.93;0.93;;;;;;;24.85;46.77;96849.38;5012560;28;20210;-27
2023/07/02 02:48:15;;;;;;;0.90;0.90;;;;;;;24.85;46.50;96846.81;5010055;28;20207;-27
2023/07/02 02:50:43;;;;;;;0.93;0.93;;;;;;;24.86;46.68;96839.94;5004858;28;20567;-27
2023/07/02 02:53:09;;;;;;;0.80;0.80;;;;;;;24.86;46.55;96850.22;5005299;28;20322;-27
2023/07/02 02:55:36;;;;;;;1.00;1.00;;;;;;;24.86;46.75;96848.53;5012258;28;20206;-31
2023/07/02 02:58:03;;;;;;;0.93;0.93;;;;;;;24.86;46.41;96852.78;5016910;28;20217;-27
2023/07/02 03:00:30;;;;;;;0.90;0.90;;;;;;;24.86;46.38;96850.22;4992485;28;20716;-26
2023/07/02 03:02:56;;;;;;;1.00;1.00;;;;;;;24.86;46.83;96853.66;5013155;28;20226;-27
2023/07/02 03:05:23;;;;;;;1.00;1.00;;;;;;;24.86;46.88;96851.09;5009684;28;20280;-27
2023/07/02 03:07:50;;;;;;;0.80;0.80;;;;;;;24.86;46.64;96852.78;5013250;28;20198;-27
2023/07/02 03:10:17;;;;;;;1.00;1.00;;;;;;;24.86;46.60;96847.66;5002537;28;20206;-32
2023/07/02 03:12:43;;;;;;;0.90;0.90;;;;;;;24.85;46.60;96857.09;5012949;28;20732;-27
2023/07/02 03:15:10;;;;;;;0.97;0.97;;;;;;;24.86;46.53;96857.94;5006131;28;20340;-31
2023/07/02 03:17:37;;;;;;;1.00;1.00;;;;;;;24.81;46.29;96845.06;5007482;28;20407;-26
2023/07/02 03:20:04;;;;;;;1.00;1.00;;;;;;;24.84;46.81;96863.06;5021529;28;20230;-27
2023/07/02 03:22:31;;;;;;;0.90;0.90;;;;;;;24.84;46.31;96869.94;5002677;28;20232;-27
2023/07/02 03:24:57;;;;;;;0.90;0.90;;;;;;;24.84;46.52;96863.06;5014257;28;20224;-30
2023/07/02 03:27:24;;;;;;;0.90;0.90;;;;;;;24.84;46.37;96878.50;5017062;28;20199;-29
2023/07/02 03:29:51;;;;;;;0.90;0.90;;;;;;;24.85;46.91;96879.34;5016041;28;20201;-27
2023/07/02 03:32:18;;;;;;;1.00;1.00;;;;;;;24.85;46.67;96880.22;5005037;28;20216;-28
2023/07/02 03:34:44;;;;;;;1.70;0.90;;;;;;;24.85;46.63;96894.78;5012614;28;20251;-27
2023/07/02 03:37:11;;;;;;;0.80;0.80;;;;;;;24.86;46.71;96893.91;5014846;28;20211;-27
2023/07/02 03:39:38;;;;;;;1.07;1.07;;;;;;;24.86;46.66;96886.22;5011020;28;20225;-27
2023/07/02 03:42:05;;;;;;;0.97;0.97;;;;;;;24.84;46.60;96893.91;5014349;28;20214;-27
2023/07/02 03:44:32;;;;;;;0.90;0.90;;;;;;;24.84;47.00;96885.38;5015922;28;20217;-27
2023/07/02 03:46:58;;;;;;;1.00;1.00;;;;;;;24.84;46.93;96888.78;5014694;28;20680;-26
2023/07/02 03:49:25;;;;;;;0.90;0.90;;;;;;;24.84;46.79;96893.06;5018973;28;20213;-27
2023/07/02 03:51:52;;;;;;;1.00;1.00;;;;;;;24.85;46.87;96894.78;5012500;28;20256;-27
2023/07/02 03:54:19;;;;;;;0.90;0.90;;;;;;;24.84;46.81;96891.34;5004825;28;20234;-27
2023/07/02 03:56:45;;;;;;;1.00;0.90;;;;;;;24.81;46.58;96888.75;5016083;28;20264;-35
2023/07/02 03:59:12;;;;;;;1.00;1.00;;;;;;;24.84;47.04;96896.47;5013864;28;20222;-27
2023/07/02 04:01:38;;;;;;;0.90;0.90;;;;;;;24.84;46.74;96898.22;5016638;28;20229;-27
2023/07/02 04:04:05;;;;;;;0.90;0.90;;;;;;;24.84;46.62;96898.22;5010374;28;20724;-27
2023/07/02 04:06:33;;;;;;;0.90;0.90;;;;;;;24.82;46.97;96900.78;5011859;28;20701;-27
2023/07/02 04:09:00;;;;;;;1.20;1.10;;;;;;;24.83;46.58;96902.47;5006874;28;20277;-27
2023/07/02 04:11:27;;;;;;;1.07;1.03;;;;;;;24.84;46.94;96900.78;5012404;28;20202;-27
2023/07/02 04:13:53;;;;;;;1.00;1.00;;;;;;;24.85;46.68;96905.06;5008993;28;20223;-27
2023/07/02 04:16:20;;;;;;;1.00;1.00;;;;;;;24.84;47.17;96911.06;5018306;28;20692;-27
2023/07/02 04:18:46;;;;;;;0.90;0.90;;;;;;;24.84;46.64;96913.63;5022396;28;20209;-28
2023/07/02 04:21:13;;;;;;;1.07;1.07;;;;;;;24.83;47.11;96917.91;5012058;28;20932;-27
2023/07/02 04:23:40;;;;;;;1.00;1.00;;;;;;;24.83;47.03;96922.19;5018096;28;20241;-27
2023/07/02 04:26:07;;;;;;;0.93;0.93;;;;;;;24.83;46.97;96929.88;5004673;28;20677;-27
2023/07/02 04:28:54;;;;;;;0.90;0.90;;;;;;;24.84;46.86;96929.06;5012472;28;20207;-27
2023/07/02 04:31:21;;;;;;;1.00;1.00;;;;;;;24.84;46.77;96927.31;5011394;28;20293;-29
2023/07/02 04:33:48;;;;;;;1.00;1.00;;;;;;;24.85;46.71;96930.75;5014729;28;20226;-27
2023/07/02 04:36:14;;;;;;;1.00;1.00;;;;;;;24.84;47.12;96937.59;5016749;28;20206;-27
2023/07/02 04:38:41;;;;;;;0.90;0.90;;;;;;;24.84;47.03;96935.03;5015141;28;20668;-31
2023/07/02 04:41:10;;;;;;;0.90;0.90;;;;;;;24.85;47.01;96943.63;5021312;28;20268;-28
2023/07/02 04:43:36;;;;;;;1.00;1.00;;;;;;;24.80;47.24;96928.16;5017262;28;20275;-27
2023/07/02 04:46:07;;;;;;;0.90;0.90;;;;;;;24.84;47.26;96940.19;5002296;28;20687;-28
2023/07/02 04:48:34;;;;;;;0.80;0.80;;;;;;;24.83;47.17;96943.59;5015609;28;20260;-27
2023/07/02 04:51:01;;;;;;;0.90;0.90;;;;;;;24.83;47.16;96941.03;5009061;28;20213;-27
2023/07/02 04:53:27;;;;;;;1.00;1.00;;;;;;;24.84;46.96;96937.59;5024659;28;20233;-27
2023/07/02 04:55:56;;;;;;;1.00;1.00;;;;;;;24.85;46.84;96948.75;5022121;28;20249;-27
2023/07/02 04:58:23;;;;;;;0.90;0.90;;;;;;;24.83;47.12;96943.59;5009225;28;20287;-27
2023/07/02 05:00:49;;;;;;;1.00;0.90;;;;;;;24.83;47.09;96948.75;5014922;28;20708;-27
2023/07/02 05:03:17;;;;;;;0.80;0.80;;;;;;;24.83;47.11;96945.31;5004304;28;20357;-27
2023/07/02 05:05:43;;;;;;;0.80;0.80;;;;;;;24.84;47.38;96949.63;5022967;28;20211;-27
2023/07/02 05:08:10;;;;;;;0.80;0.80;;;;;;;24.81;46.89;96954.75;5014312;28;20210;-27
2023/07/02 05:10:37;;;;;;;1.03;1.03;;;;;;;24.83;47.24;96956.47;5011693;28;20202;-27
2023/07/02 05:13:03;;;;;;;0.90;0.90;;;;;;;24.83;47.25;96961.59;5002145;28;20719;-27
2023/07/02 05:15:30;;;;;;;0.80;0.80;;;;;;;24.84;46.96;96965.88;5008977;28;20209;-27
2023/07/02 05:17:56;;;;;;;1.00;1.00;;;;;;;24.84;47.05;96967.63;5022921;28;20198;-27
2023/07/02 05:20:23;;;;;;;0.90;0.90;;;;;;;24.84;46.87;96967.63;5003888;28;20593;-27
2023/07/02 05:22:50;;;;;;;0.90;0.90;;;;;;;24.84;47.09;96962.47;5020042;28;20221;-27
2023/07/02 05:25:17;;;;;;;0.90;0.90;;;;;;;24.84;46.85;96970.19;5014665;28;20206;-27
2023/07/02 05:27:43;;;;;;;1.20;1.10;;;;;;;24.84;47.19;96970.19;5011538;28;20209;-27
2023/07/02 05:30:10;;;;;;;0.90;0.90;;;;;;;24.84;47.44;96967.63;5010963;28;20255;-27
2023/07/02 05:32:39;;;;;;;1.00;1.00;;;;;;;24.84;47.19;96975.31;5006720;28;20206;-27
2023/07/02 05:35:06;;;;;;;1.03;1.03;;;;;;;24.81;47.14;96981.28;5009689;28;20213;-30
2023/07/02 05:37:32;;;;;;;1.00;1.00;;;;;;;24.83;46.85;96986.44;5013939;28;20240;-27
2023/07/02 05:39:59;;;;;;;0.90;0.90;;;;;;;24.82;47.27;96979.56;5004113;28;20659;-27
2023/07/02 05:42:26;;;;;;;1.00;1.00;;;;;;;24.82;47.23;96985.59;5013890;28;20245;-26
2023/07/02 05:44:52;;;;;;;0.90;0.90;;;;;;;24.82;47.07;96992.44;5011076;28;20572;-27
2023/07/02 05:47:19;;;;;;;0.80;0.80;;;;;;;24.81;47.23;96989.00;5019467;28;20637;-27
2023/07/02 05:49:45;;;;;;;0.90;0.90;;;;;;;24.81;47.38;96996.69;5006611;28;20198;-27
2023/07/02 05:52:12;;;;;;;0.80;0.80;;;;;;;24.81;47.13;96998.44;5017388;28;20275;-27
2023/07/02 05:54:40;;;;;;;0.90;0.90;;;;;;;24.81;47.53;97001.84;5006093;28;20293;-27
2023/07/02 05:57:07;;;;;;;1.10;1.10;;;;;;;24.81;47.44;97001.84;5007717;28;20203;-27
2023/07/02 05:59:34;;;;;;;0.90;0.90;;;;;;;24.81;47.29;97001.84;5003571;28;20685;-27
2023/07/02 06:02:01;;;;;;;0.90;0.90;;;;;;;24.80;47.46;97002.69;5007091;28;20209;-27
2023/07/02 06:04:27;;;;;;;0.90;0.90;;;;;;;24.80;47.62;97018.13;5028741;28;20230;-32
2023/07/02 06:06:54;;;;;;;1.00;1.00;;;;;;;24.81;47.17;97011.28;5016297;28;20202;-27
2023/07/02 06:09:21;;;;;;;0.93;0.93;;;;;;;24.80;47.46;97018.13;5021936;28;20705;-27
2023/07/02 06:11:47;;;;;;;1.00;1.00;;;;;;;24.80;46.99;97020.69;5014404;28;20261;-29
2023/07/02 06:14:14;;;;;;;0.90;0.90;;;;;;;24.81;47.30;97030.13;4997022;28;20229;-27
2023/07/02 06:16:41;;;;;;;1.00;1.00;;;;;;;24.81;47.47;97034.41;5012172;28;20199;-27
2023/07/02 06:19:08;;;;;;;0.90;0.90;;;;;;;24.80;47.35;97028.41;5018616;28;20680;-27
2023/07/02 06:21:34;;;;;;;0.90;0.90;;;;;;;24.80;47.19;97032.66;5014754;28;20218;-27
2023/07/02 06:24:01;;;;;;;0.90;0.90;;;;;;;24.80;47.14;97033.53;4998248;28;20720;-27
2023/07/02 06:26:29;;;;;;;1.07;1.07;;;;;;;24.80;47.58;97041.25;5014373;28;20210;-27
2023/07/02 06:28:56;;;;;;;1.10;1.10;;;;;;;24.81;47.54;97034.41;5013073;28;20213;-27
2023/07/02 06:31:23;;;;;;;0.80;0.80;;;;;;;24.80;47.12;97036.13;5011861;28;20241;-27
2023/07/02 06:33:50;;;;;;;1.13;0.90;;;;;;;24.81;47.31;97042.13;5016707;28;20230;-27
2023/07/02 06:36:17;;;;;;;0.90;0.90;;;;;;;24.81;47.12;97042.97;5003709;28;20210;-27
2023/07/02 06:38:44;;;;;;;1.00;1.00;;;;;;;24.81;47.05;97037.81;5007711;28;20237;-27
2023/07/02 06:41:11;;;;;;;1.00;1.00;;;;;;;24.81;47.23;97042.13;5012958;28;20708;-31
2023/07/02 06:43:38;;;;;;;1.00;1.00;;;;;;;24.81;47.42;97045.53;5014594;28;20272;-27
2023/07/02 06:46:04;;;;;;;1.00;1.00;;;;;;;24.81;47.54;97037.81;5013568;28;20206;-27
2023/07/02 06:48:31;;;;;;;1.00;1.00;;;;;;;24.82;47.19;97043.84;5007676;28;20203;-27
2023/07/02 06:50:57;;;;;;;0.97;0.97;;;;;;;24.81;47.51;97045.53;5007620;28;20238;-27
2023/07/02 06:53:24;;;;;;;0.83;0.83;;;;;;;24.82;47.52;97054.13;5007568;28;20233;-27
2023/07/02 06:55:51;;;;;;;0.87;0.87;;;;;;;24.82;47.59;97054.13;5004105;28;20289;-26
2023/07/02 06:58:17;;;;;;;0.87;0.87;;;;;;;24.82;47.70;97057.56;5019874;28;20624;-27
2023/07/02 07:00:44;;;;;;;1.00;1.00;;;;;;;24.81;47.34;97062.69;5013557;28;20241;-27
2023/07/02 07:03:10;;;;;;;1.00;1.00;;;;;;;24.82;47.54;97078.13;5009965;28;20230;-27
2023/07/02 07:05:38;;;;;;;0.90;0.90;;;;;;;24.82;47.56;97087.53;5009070;28;20206;-26
2023/07/02 07:08:05;;;;;;;0.90;0.90;;;;;;;24.82;47.49;97084.97;5004781;28;20198;-29
2023/07/02 07:10:34;;;;;;;1.00;1.00;;;;;;;24.82;47.36;97085.84;5008860;28;20252;-35
2023/07/02 07:13:02;;;;;;;0.90;0.90;;;;;;;24.82;47.61;97085.84;5015825;28;20253;-27
2023/07/02 07:15:33;;;;;;;0.90;0.90;;;;;;;24.82;47.45;97092.66;5005886;28;20202;-29
2023/07/02 07:18:00;;;;;;;1.00;1.00;;;;;;;24.82;47.52;97079.81;5015781;28;20210;-27
2023/07/02 07:20:27;;;;;;;1.23;1.00;;;;;;;24.82;47.26;97077.25;5002687;28;20230;-27
2023/07/02 07:22:54;;;;;;;0.90;0.90;;;;;;;24.82;47.35;97085.84;5020407;28;20229;-27
2023/07/02 07:25:20;;;;;;;0.97;0.97;;;;;;;24.78;47.73;97083.22;5014042;28;20840;-27
2023/07/02 07:27:47;;;;;;;0.90;0.90;;;;;;;24.82;47.41;97083.25;5009267;28;20736;-27
2023/07/02 07:30:14;;;;;;;1.00;1.00;;;;;;;24.82;47.61;97088.41;5019727;28;20190;-27
2023/07/02 07:32:41;;;;;;;1.10;1.10;;;;;;;24.81;47.75;97083.25;5007831;28;20222;-27
2023/07/02 07:35:08;;;;;;;1.10;1.10;;;;;;;24.81;47.85;97076.38;5010044;28;20203;-27
2023/07/02 07:37:35;;;;;;;3.43;1.10;;;;;;;24.82;48.10;97080.69;5009389;28;20326;-27
2023/07/02 07:40:01;;;;;;;2.13;1.63;;;;;;;24.81;48.28;97078.94;5008553;28;20212;-32
2023/07/02 07:42:28;;;;;;;1.53;1.43;;;;;;;24.81;48.28;97086.66;5011288;28;20230;-27
2023/07/02 07:44:54;;;;;;;5.37;1.80;;;;;;;24.81;47.78;97076.38;5013260;28;20202;-27
2023/07/02 07:47:21;;;;;;;1.97;1.70;;;;;;;24.79;48.11;97069.50;5008598;28;20618;-27
2023/07/02 07:49:48;;;;;;;3.43;1.70;;;;;;;24.81;47.85;97076.38;5003402;28;20571;-27
2023/07/02 07:52:14;;;;;;;1.50;1.40;;;;;;;24.82;47.74;97070.41;5011161;28;20320;-27
2023/07/02 07:54:41;;;;;;;3.20;1.73;;;;;;;24.82;47.75;97072.13;5037769;22;20288;-28
2023/07/02 07:57:08;;;;;;;3.87;1.63;;;;;;;24.81;47.94;97071.25;5025949;28;20210;-29
2023/07/02 07:59:34;;;;;;;2.80;1.60;;;;;;;24.76;48.40;97069.47;5028982;28;20698;-29
2023/07/02 08:02:01;;;;;;;2.07;1.77;;;;;;;24.79;47.79;97072.94;5033335;28;20680;-28
2023/07/02 08:04:27;;;;;;;2.00;1.80;;;;;;;24.79;48.01;97072.09;5000227;28;20222;-28
2023/07/02 08:06:54;;;;;;;2.13;1.67;;;;;;;24.78;47.75;97072.94;5014704;28;20289;-28
2023/07/02 08:09:21;;;;;;;4.20;1.70;;;;;;;24.79;48.04;97070.38;5014933;28;20198;-28
2023/07/02 08:11:48;;;;;;;3.63;2.10;;;;;;;24.79;47.61;97067.81;5013345;28;20207;-28
2023/07/02 08:14:15;;;;;;;2.43;1.70;;;;;;;24.79;47.71;97072.09;5011908;28;20218;-29
2023/07/02 08:16:42;;;;;;;2.40;1.90;;;;;;;24.78;48.00;97068.63;5008978;28;20198;-28
2023/07/02 08:19:08;;;;;;;4.20;2.00;;;;;;;24.79;47.68;97085.81;5010279;28;20748;-28
2023/07/02 08:21:35;;;;;;;4.00;1.80;;;;;;;24.78;47.88;97075.50;5013760;28;20229;-30
2023/07/02 08:24:02;;;;;;;2.50;2.10;;;;;;;24.78;47.67;97078.09;5019041;28;20222;-28
2023/07/02 08:26:29;;;;;;;2.03;1.80;;;;;;;24.76;47.76;97077.19;5009392;28;20206;-28
2023/07/02 08:28:56;;;;;;;2.20;2.00;;;;;;;24.75;47.57;97078.06;5013648;28;20209;-30
2023/07/02 08:31:22;;;;;;;2.30;1.77;;;;;;;24.78;48.04;97083.22;5008648;28;20210;-28
2023/07/02 08:33:50;;;;;;;3.17;2.00;;;;;;;24.78;47.67;97083.22;4994883;28;20731;-28
2023/07/02 08:36:17;;;;;;;2.33;2.00;;;;;;;24.79;47.70;97084.94;5003011;28;20213;-28
2023/07/02 08:38:43;;;;;;;2.00;1.70;;;;;;;24.79;47.79;97079.78;4985806;28;23188;-28
2023/07/02 08:41:10;;;;;;;2.27;2.00;;;;;;;24.77;48.18;97089.19;5004440;28;20636;-28
2023/07/02 08:43:36;;;;;;;2.10;1.90;;;;;;;24.79;47.76;97082.38;5002634;28;20229;-28
2023/07/02 08:46:03;;;;;;;2.70;1.90;;;;;;;24.77;47.70;97078.91;4995350;28;20559;-29
2023/07/02 08:48:30;;;;;;;2.53;1.80;;;;;;;24.77;48.05;97087.50;4983259;28;20268;-36
2023/07/02 08:50:57;;;;;;;2.47;1.90;;;;;;;24.78;48.05;97081.50;4983879;28;20203;-31
2023/07/02 08:53:29;;;;;;;2.43;2.10;;;;;;;24.78;47.55;97078.91;4998685;28;20238;-29
2023/07/02 08:55:56;;;;;;;2.20;1.90;;;;;;;24.78;47.80;97078.91;4999457;28;20207;-33
2023/07/02 08:58:22;;;;;;;2.40;2.00;;;;;;;24.78;47.55;97078.91;5000829;28;20728;-29
2023/07/02 09:01:12;;;;;;;1.83;1.70;;;;;;;24.78;47.56;97081.50;5000566;28;20230;-28
2023/07/02 09:03:39;;;;;;;2.10;1.90;;;;;;;24.80;47.69;97089.22;4999549;28;20578;-29
2023/07/02 09:06:09;;;;;;;2.23;2.03;;;;;;;24.80;47.87;97089.22;4999773;28;20210;-29
2023/07/02 09:08:36;;;;;;;2.30;1.90;;;;;;;24.79;47.49;97087.50;4998054;28;20210;-28
2023/07/02 09:11:10;;;;;;;2.07;1.80;;;;;;;24.79;48.01;97088.38;4998934;28;20293;-29
2023/07/02 09:13:49;;;;;;;1.90;1.80;;;;;;;24.79;47.92;97085.81;4997173;28;20244;-28
2023/07/02 09:16:29;;;;;;;2.30;2.10;;;;;;;24.79;47.55;97077.22;5000726;28;20254;-28
2023/07/02 09:18:56;;;;;;;2.20;1.97;;;;;;;24.80;47.71;97078.94;4999206;28;20297;-30
2023/07/02 09:21:25;;;;;;;2.10;1.90;;;;;;;24.80;48.08;97087.50;5000556;28;20226;-28
2023/07/02 09:23:51;;;;;;;3.00;2.00;;;;;;;24.81;47.77;97085.81;4965109;28;20234;-27
2023/07/02 09:26:21;;;;;;;1.80;1.70;;;;;;;24.80;47.61;97082.38;4984848;28;20216;-31
2023/07/02 09:28:48;;;;;;;3.63;1.90;;;;;;;24.81;48.10;97080.69;5000759;28;20206;-29
2023/07/02 09:31:16;;;;;;;2.13;1.90;;;;;;;24.82;47.54;97072.13;4988206;28;20297;-29
2023/07/02 09:33:43;;;;;;;2.00;1.90;;;;;;;24.82;47.90;97080.69;5007694;28;20724;-30
2023/07/02 09:36:11;;;;;;;1.90;1.80;;;;;;;24.82;48.11;97065.28;5014507;28;20305;-28
2023/07/02 09:38:37;;;;;;;2.00;1.80;;;;;;;24.82;47.75;97066.97;4995168;28;20220;-28
2023/07/02 09:41:04;;;;;;;2.10;1.90;;;;;;;24.83;47.79;97068.69;4978039;28;20214;-28
2023/07/02 09:43:30;;;;;;;2.20;2.00;;;;;;;24.80;47.90;97077.22;5015504;28;20222;-28
2023/07/02 09:45:57;;;;;;;2.23;1.90;;;;;;;24.82;47.71;97065.28;4983111;28;20206;-28
2023/07/02 09:48:25;;;;;;;1.97;1.87;;;;;;;24.85;47.92;97067.00;4985182;28;20205;-29
2023/07/02 09:50:52;;;;;;;1.93;1.73;;;;;;;24.85;47.76;97065.28;4996196;28;20198;-29
2023/07/02 09:53:19;;;;;;;2.10;1.90;;;;;;;24.85;47.58;97065.28;4993289;28;20218;-28
2023/07/02 09:55:45;;;;;;;2.57;1.93;;;;;;;24.84;47.91;97055.84;5008513;28;20202;-35
2023/07/02 09:58:12;;;;;;;1.80;1.70;;;;;;;24.85;47.69;97064.44;5016486;28;20628;-28
2023/07/02 10:00:39;;;;;;;1.93;1.70;;;;;;;24.85;47.99;97060.16;5009140;28;20209;-28
2023/07/02 10:03:05;;;;;;;2.10;1.80;;;;;;;24.85;48.25;97061.84;4992411;28;20213;-30
2023/07/02 10:05:33;;;;;;;2.20;2.00;;;;;;;24.84;48.05;97052.44;5017133;28;20293;-28
2023/07/02 10:08:17;;;;;;;2.83;1.80;;;;;;;24.85;47.83;97056.72;4995995;28;20304;-29
2023/07/02 10:10:44;;;;;;;1.60;1.50;;;;;;;24.85;47.88;97051.56;5004066;28;20205;-30
2023/07/02 10:13:11;;;;;;;2.30;1.80;;;;;;;24.86;48.14;97051.59;5003632;28;20214;-29
2023/07/02 10:15:39;;;;;;;1.80;1.60;;;;;;;24.86;48.21;97054.16;5004303;28;20256;-32
2023/07/02 10:18:05;;;;;;;1.90;1.70;;;;;;;24.85;47.75;97062.72;5004917;28;20754;-28
2023/07/02 10:20:41;;;;;;;2.00;1.90;;;;;;;24.84;48.18;97060.97;5002724;28;20236;-37
2023/07/02 10:23:08;;;;;;;1.73;1.63;;;;;;;24.86;47.87;97066.13;5005862;28;21006;-28
2023/07/02 10:25:39;;;;;;;2.13;1.97;;;;;;;24.85;48.27;97059.28;5005255;28;20202;-28
2023/07/02 10:28:17;;;;;;;1.80;1.70;;;;;;;24.84;47.88;97067.84;5004748;28;20208;-28
2023/07/02 10:30:43;;;;;;;2.00;1.80;;;;;;;24.85;48.13;97062.72;5004067;28;20213;-29
2023/07/02 10:33:17;;;;;;;1.80;1.70;;;;;;;24.84;47.83;97060.97;5006808;28;20635;-28
2023/07/02 10:35:47;;;;;;;1.60;1.50;;;;;;;24.84;48.05;97067.84;5005731;28;20214;-29
2023/07/02 10:38:17;;;;;;;2.10;1.87;;;;;;;24.84;48.05;97060.16;5003285;28;20206;-33
2023/07/02 10:40:43;;;;;;;1.67;1.57;;;;;;;24.84;47.76;97068.69;5006012;28;20209;-28
2023/07/02 10:43:10;;;;;;;2.00;1.80;;;;;;;24.82;48.09;97061.81;5004744;28;20265;-28
2023/07/02 10:45:37;;;;;;;2.70;1.73;;;;;;;24.83;48.20;97066.97;5006106;28;20665;-28
2023/07/02 10:48:04;;;;;;;2.07;1.87;;;;;;;24.84;48.09;97062.72;5003626;28;20210;-28
2023/07/02 10:50:34;;;;;;;1.80;1.70;;;;;;;24.84;47.67;97060.97;4998954;28;20209;-29
2023/07/02 10:53:00;;;;;;;1.87;1.50;;;;;;;24.85;48.07;97056.72;5013166;28;20202;-28
2023/07/02 10:55:28;;;;;;;1.80;1.70;;;;;;;24.84;47.90;97048.13;5017433;28;20233;-28
2023/07/02 10:58:04;;;;;;;5.00;3.03;;;;;;;24.87;48.19;97058.44;5017717;28;20198;-28
2023/07/02 11:00:31;;;;;;;6.07;3.37;;;;;;;24.96;46.68;97052.53;5012929;28;20201;-28
2023/07/02 11:02:58;;;;;;;5.13;3.13;;;;;;;25.05;44.52;97053.44;5015730;28;20226;-28
2023/07/02 11:05:25;;;;;;;5.17;3.23;;;;;;;25.16;43.20;97053.53;5013171;28;20522;-29
2023/07/02 11:07:57;;;;;;;4.53;2.90;;;;;;;25.28;42.02;97053.63;4985338;28;20197;-28
2023/07/02 11:10:24;;;;;;;3.93;2.70;;;;;;;25.39;41.26;97044.31;4990698;28;20216;-28
2023/07/02 11:12:51;;;;;;;4.87;3.00;;;;;;;25.48;40.89;97048.66;5009787;28;20206;-28
2023/07/02 11:15:18;;;;;;;5.23;2.90;;;;;;;25.57;40.51;97044.41;5009114;28;20654;-28
2023/07/02 11:17:44;;;;;;;4.23;2.80;;;;;;;25.63;40.05;97039.31;5011843;28;20198;-28
2023/07/02 11:20:12;;;;;;;3.67;2.87;;;;;;;25.71;39.20;97037.66;5009559;28;20199;-29
2023/07/02 11:22:39;;;;;;;5.00;3.23;;;;;;;25.76;39.09;97038.53;5005184;28;20215;-28
2023/07/02 11:25:12;;;;;;;3.67;2.63;;;;;;;25.83;38.76;97042.00;5010752;28;20222;-28
2023/07/02 11:27:40;;;;;;;4.27;3.10;;;;;;;25.86;38.74;97042.88;5007197;28;20455;-28
2023/07/02 11:30:06;;;;;;;5.40;3.20;;;;;;;25.90;38.10;97039.44;5020467;28;20205;-28
2023/07/02 11:32:46;;;;;;;4.10;2.77;;;;;;;25.95;37.97;97037.75;5018048;28;20202;-28
2023/07/02 11:35:13;;;;;;;5.70;2.80;;;;;;;25.98;37.99;97042.97;5014317;28;20229;-28
2023/07/02 11:37:39;;;;;;;3.80;2.55;;;;;;;26.01;37.47;97040.41;5008738;28;20626;-28